Time;durP1;ratioP1;P1;durP2;ratioP2;P2;SDS_P1;SDS_P2;PMS_P1;PMS_P2;Temp;Humidity;BMP_temperature;BMP_pressure;BME280_temperature;BME280_humidity;BME280_pressure;Samples;Min_cycle;Max_cycle;Signal;HPM_P1;HPM_P2
2021/12/17 00:00:21;;;;;;;11.32;4.75;;;;;;;21.28;38.08;102044.09;2095870;28;20053;-66
2021/12/17 00:01:50;;;;;;;11.52;4.40;;;;;;;21.29;38.22;102042.13;2095420;28;20044;-65
2021/12/17 00:03:11;;;;;;;12.13;4.28;;;;;;;21.27;38.13;102034.22;2094272;28;20419;-66
2021/12/17 00:04:27;;;;;;;15.23;5.25;;;;;;;21.27;38.32;102034.22;2095436;28;20049;-67
2021/12/17 00:05:45;;;;;;;10.38;4.53;;;;;;;21.28;38.35;102035.03;2095332;28;20055;-67
2021/12/17 00:06:52;;;;;;;8.40;4.28;;;;;;;21.28;38.32;102040.53;2094526;28;20165;-67
2021/12/17 00:07:56;;;;;;;10.13;4.45;;;;;;;21.26;38.48;102032.59;2095544;28;20052;-66
2021/12/17 00:09:04;;;;;;;10.40;4.80;;;;;;;21.27;38.30;102036.16;2096793;28;20497;-67
2021/12/17 00:10:11;;;;;;;11.52;5.30;;;;;;;21.27;38.45;102031.50;2095823;28;20048;-67
2021/12/17 00:11:16;;;;;;;10.35;4.47;;;;;;;21.28;38.40;102029.53;2095438;28;20638;-67
2021/12/17 00:12:23;;;;;;;11.02;4.70;;;;;;;21.27;38.38;102030.66;2096049;28;20068;-67
2021/12/17 00:13:29;;;;;;;11.48;4.38;;;;;;;21.28;38.39;102035.03;2096226;28;20063;-67
2021/12/17 00:14:38;;;;;;;9.40;4.32;;;;;;;21.28;38.47;102035.84;2096170;28;20075;-67
2021/12/17 00:15:41;;;;;;;12.20;4.93;;;;;;;21.27;38.58;102030.66;2095968;28;20053;-67
2021/12/17 00:16:46;;;;;;;10.68;4.38;;;;;;;21.28;38.55;102029.53;2095804;28;20777;-66
2021/12/17 00:17:58;;;;;;;10.15;4.15;;;;;;;21.29;38.47;102034.69;2095748;28;20632;-67
2021/12/17 00:48:47;;;;;;;10.05;4.38;;;;;;;21.31;38.83;102055.53;2095016;28;20041;-66
2021/12/17 00:50:02;;;;;;;10.30;4.45;;;;;;;21.32;38.92;102060.69;2096717;28;20542;-68
2021/12/17 00:52:30;;;;;;;;;;;;;;;21.33;38.95;102064.25;2095040;28;20049;-67
2021/12/17 00:53:35;;;;;;;8.43;3.88;;;;;;;21.32;39.03;102062.66;2088176;28;19920;-68
2021/12/17 00:54:44;;;;;;;8.63;4.05;;;;;;;21.33;39.02;102069.75;2094668;28;20500;-68
2021/12/17 00:55:53;;;;;;;9.32;3.50;;;;;;;21.34;39.00;102069.44;2095441;28;20238;-68
2021/12/17 00:57:00;;;;;;;7.07;3.40;;;;;;;21.34;38.86;102077.69;2087733;28;20088;-68
2021/12/17 00:58:04;;;;;;;8.70;3.80;;;;;;;21.35;39.16;102089.47;2095790;28;20044;-68
2021/12/17 00:59:10;;;;;;;14.05;3.83;;;;;;;21.34;39.19;102082.34;2095527;28;20738;-69
2021/12/17 01:00:17;;;;;;;8.77;3.40;;;;;;;21.32;39.15;102082.69;2095299;28;20060;-69
2021/12/17 01:01:24;;;;;;;7.95;3.75;;;;;;;21.33;39.19;102086.25;2091455;28;20529;-69
2021/12/17 01:02:34;;;;;;;7.72;3.50;;;;;;;21.34;39.22;102082.34;2095352;28;20574;-69
2021/12/17 01:03:37;;;;;;;11.95;3.90;;;;;;;21.34;39.14;102079.59;2096245;28;20043;-69
2021/12/17 01:04:46;;;;;;;9.27;3.90;;;;;;;21.34;39.39;102077.69;2094829;28;20041;-69
2021/12/17 01:05:49;;;;;;;10.77;4.25;;;;;;;21.34;39.28;102088.66;2087796;28;20087;-69
2021/12/17 01:06:55;;;;;;;7.85;3.33;;;;;;;21.35;39.20;102083.97;2095816;28;20052;-68
2021/12/17 01:08:00;;;;;;;8.68;3.92;;;;;;;21.35;39.24;102081.22;2095484;28;20139;-68
2021/12/17 01:09:07;;;;;;;6.78;3.47;;;;;;;21.35;39.10;102084.78;2087902;28;20053;-69
2021/12/17 01:10:14;;;;;;;8.07;3.97;;;;;;;21.36;39.33;102080.88;2095890;28;20429;-69
2021/12/17 01:11:32;;;;;;;8.73;3.53;;;;;;;21.34;39.54;102083.16;2095078;28;20049;-68
2021/12/17 01:12:44;;;;;;;8.30;3.53;;;;;;;21.33;39.11;102081.53;2098711;28;20040;-66
2021/12/17 01:14:17;;;;;;;6.97;3.17;;;;;;;21.34;39.25;102080.41;2089457;28;20049;-68
2021/12/17 01:15:29;;;;;;;6.70;3.35;;;;;;;21.35;39.19;102075.72;2098112;28;20044;-68
2021/12/17 01:16:53;;;;;;;8.32;3.50;;;;;;;21.35;39.23;102075.72;2095289;28;20059;-67
2021/12/17 01:18:14;;;;;;;8.70;3.35;;;;;;;21.32;39.17;102062.66;2089704;28;20049;-66
2021/12/17 01:20:10;;;;;;;8.57;3.42;;;;;;;21.34;39.18;102065.84;2089172;28;20051;-67
2021/12/17 01:21:20;;;;;;;8.10;3.70;;;;;;;21.34;39.17;102071.34;2090762;28;20496;-67
2021/12/17 01:24:14;;;;;;;9.90;4.00;;;;;;;21.33;39.10;102058.75;2096120;28;20049;-66
2021/12/17 01:25:33;;;;;;;8.30;3.78;;;;;;;21.34;39.18;102060.34;2095172;28;20052;-66
2021/12/17 01:35:37;;;;;;;6.88;3.80;;;;;;;21.31;39.17;102045.34;2080779;28;20053;-66
2021/12/17 01:37:05;;;;;;;7.45;3.67;;;;;;;21.32;39.17;102048.91;2095265;28;20262;-67
2021/12/17 01:41:12;;;;;;;7.97;3.40;;;;;;;21.31;39.24;102058.28;2084881;28;20056;-65
2021/12/17 01:42:19;;;;;;;8.45;3.30;;;;;;;21.33;39.36;102064.25;2094942;28;20067;-66
2021/12/17 01:43:23;;;;;;;9.63;3.55;;;;;;;21.29;39.29;102048.44;2087510;28;20285;-67
2021/12/17 01:44:29;;;;;;;6.60;3.30;;;;;;;21.34;39.31;102052.09;2086861;28;20045;-68
2021/12/17 01:45:38;;;;;;;7.13;3.40;;;;;;;21.35;39.17;102061.97;2094329;28;20119;-67
2021/12/17 01:46:42;;;;;;;7.90;3.25;;;;;;;21.34;39.20;102055.69;2087058;28;20295;-68
2021/12/17 01:47:45;;;;;;;8.52;3.33;;;;;;;21.34;39.17;102055.69;2087144;28;20064;-68
2021/12/17 01:49:03;;;;;;;7.20;3.28;;;;;;;21.35;39.48;102059.22;2095441;28;20048;-67
2021/12/17 01:55:49;;;;;;;8.73;3.20;;;;;;;21.36;39.28;102058.09;2089946;28;20480;-68
2021/12/17 01:56:58;;;;;;;6.38;3.15;;;;;;;21.36;39.17;102063.56;2094095;28;20059;-68
2021/12/17 01:59:37;;;;;;;6.38;3.13;;;;;;;21.35;39.25;102054.53;2090479;28;20067;-68
2021/12/17 02:00:44;;;;;;;10.57;3.08;;;;;;;21.35;39.32;102061.97;2095113;28;20045;-68
2021/12/17 02:01:50;;;;;;;7.55;2.78;;;;;;;21.34;39.31;102049.34;2086830;28;20119;-68
2021/12/17 02:02:55;;;;;;;6.75;2.80;;;;;;;21.36;39.09;102056.13;2086979;28;20061;-68
2021/12/17 02:04:09;;;;;;;6.65;3.30;;;;;;;21.37;39.22;102060.50;2095150;28;20063;-68
2021/12/17 02:05:15;;;;;;;6.20;3.20;;;;;;;21.37;39.27;102054.19;2087911;28;20428;-68
2021/12/17 02:06:21;;;;;;;6.63;3.03;;;;;;;21.36;39.27;102052.59;2087093;28;20059;-68
2021/12/17 02:07:25;;;;;;;8.02;3.00;;;;;;;21.36;39.18;102052.59;2094585;28;20044;-67
2021/12/17 02:08:31;;;;;;;6.57;3.15;;;;;;;21.35;39.24;102050.97;2094722;28;20032;-67
2021/12/17 02:11:47;;;;;;;7.18;3.28;;;;;;;21.33;39.21;102053.25;2090127;28;20052;-67
2021/12/17 02:13:05;;;;;;;9.27;3.25;;;;;;;21.34;39.04;102052.09;2091732;28;20400;-67
2021/12/17 02:20:10;;;;;;;6.00;2.80;;;;;;;21.33;39.40;102048.56;2085101;28;20472;-67
2021/12/17 02:21:36;;;;;;;6.40;2.63;;;;;;;21.31;39.28;102055.53;2094740;28;20048;-68
2021/12/17 02:30:00;;;;;;;5.40;2.70;;;;;;;21.33;39.35;102054.06;2089263;28;20052;-70
2021/12/17 02:31:19;;;;;;;6.10;2.45;;;;;;;21.33;39.55;102048.56;2089388;28;20055;-70
2021/12/17 02:32:28;;;;;;;7.50;3.10;;;;;;;21.34;39.35;102054.84;2094863;28;20049;-69
2021/12/17 02:33:31;;;;;;;5.80;2.60;;;;;;;21.33;39.51;102053.25;2094496;28;20095;-68
2021/12/17 02:34:56;;;;;;;6.00;3.00;;;;;;;21.33;39.37;102053.25;2093787;28;20052;-68
2021/12/17 02:36:00;;;;;;;6.05;2.58;;;;;;;21.32;39.38;102054.41;2093787;28;20057;-68
2021/12/17 02:37:10;;;;;;;5.43;2.45;;;;;;;21.32;39.30;102068.94;2094850;28;20048;-67
2021/12/17 02:38:37;;;;;;;6.97;2.90;;;;;;;21.32;39.40;102073.66;2098029;28;20041;-66
2021/12/17 02:40:04;;;;;;;6.53;3.00;;;;;;;21.33;39.59;102078.00;2094886;28;20282;-66
2021/12/17 02:45:36;;;;;;;6.38;2.58;;;;;;;21.34;39.58;102077.69;2094333;28;20504;-66
2021/12/17 02:46:40;;;;;;;7.70;2.80;;;;;;;21.33;39.52;102076.03;2094530;28;20064;-67
2021/12/17 02:47:45;;;;;;;4.60;2.28;;;;;;;21.33;39.58;102081.53;2086768;28;20484;-67
2021/12/17 02:48:52;;;;;;;5.05;2.30;;;;;;;21.34;39.57;102087.84;2087130;28;20519;-67
2021/12/17 02:49:56;;;;;;;5.78;3.10;;;;;;;21.34;39.55;102068.59;2094457;28;20738;-67
2021/12/17 02:51:01;;;;;;;4.90;2.65;;;;;;;21.33;39.48;102069.75;2086057;28;20052;-67
2021/12/17 02:52:12;;;;;;;6.95;2.85;;;;;;;21.34;39.49;102077.69;2086928;28;20052;-67
2021/12/17 02:53:19;;;;;;;8.23;2.78;;;;;;;21.33;39.67;102075.25;2086857;28;20063;-67
2021/12/17 02:54:22;;;;;;;7.28;2.83;;;;;;;21.30;39.66;102071.22;2086456;28;20725;-66
2021/12/17 02:55:29;;;;;;;5.70;2.40;;;;;;;21.33;39.37;102075.25;2094051;28;20056;-66
2021/12/17 02:56:35;;;;;;;6.70;2.45;;;;;;;21.23;39.69;102049.78;2095779;28;20420;-67
2021/12/17 02:57:38;;;;;;;5.68;2.50;;;;;;;21.33;39.57;102064.25;2095575;28;20044;-66
2021/12/17 02:58:44;;;;;;;6.80;2.65;;;;;;;21.33;39.52;102062.31;2094023;28;20075;-67
2021/12/17 02:59:48;;;;;;;4.97;2.60;;;;;;;21.33;39.52;102062.31;2094510;28;20045;-66
2021/12/17 03:00:53;;;;;;;6.47;3.00;;;;;;;21.34;39.82;102068.59;2094230;28;20531;-67
2021/12/17 03:01:59;;;;;;;9.90;2.67;;;;;;;21.33;39.54;102067.00;2086553;28;20440;-66
2021/12/17 03:03:06;;;;;;;17.25;3.50;;;;;;;21.33;39.49;102069.75;2094069;28;20052;-66
2021/12/17 03:04:12;;;;;;;6.90;2.63;;;;;;;21.34;39.54;102066.69;2079180;28;20049;-66
2021/12/17 03:05:15;;;;;;;4.88;2.60;;;;;;;21.33;39.54;102069.75;2078811;28;20049;-66
2021/12/17 03:06:21;;;;;;;6.25;2.42;;;;;;;21.34;39.59;102071.34;2077951;28;20489;-66
2021/12/17 03:07:27;;;;;;;5.20;2.13;;;;;;;21.34;39.57;102068.59;2078097;28;20061;-66
2021/12/17 03:08:34;;;;;;;5.78;2.75;;;;;;;21.35;39.57;102072.97;2086100;28;20048;-66
2021/12/17 03:09:54;;;;;;;5.63;2.33;;;;;;;21.34;39.42;102060.34;2085772;28;20508;-66
2021/12/17 03:10:58;;;;;;;5.47;2.45;;;;;;;21.34;39.50;102057.59;2088458;28;20045;-66
2021/12/17 03:12:02;;;;;;;5.55;2.45;;;;;;;21.34;39.31;102071.34;2094479;28;20056;-66
2021/12/17 03:13:07;;;;;;;8.00;2.60;;;;;;;21.29;39.41;102059.41;2085629;28;20413;-66
2021/12/17 03:14:13;;;;;;;11.27;2.42;;;;;;;21.32;39.61;102063.44;2086064;28;20064;-65
2021/12/17 03:15:24;;;;;;;9.10;3.03;;;;;;;21.33;39.57;102064.25;2085745;28;20616;-65
2021/12/17 03:16:35;;;;;;;6.18;3.03;;;;;;;21.32;39.49;102060.69;2086132;28;20060;-64
2021/12/17 03:18:01;;;;;;;5.55;2.80;;;;;;;21.32;39.60;102057.16;2093947;28;20354;-65
2021/12/17 03:19:11;;;;;;;5.53;2.63;;;;;;;21.31;39.50;102061.03;2090852;28;20060;-65
2021/12/17 03:24:22;;;;;;;6.32;2.97;;;;;;;21.32;39.53;102057.16;2094622;28;20709;-65
2021/12/17 03:25:27;;;;;;;6.53;2.45;;;;;;;21.33;39.40;102056.00;2094127;28;20040;-65
2021/12/17 03:26:32;;;;;;;5.70;2.47;;;;;;;21.33;39.50;102058.75;2093826;28;20071;-65
2021/12/17 03:27:38;;;;;;;5.05;2.35;;;;;;;21.33;39.58;102056.00;2093094;28;20045;-65
2021/12/17 03:28:43;;;;;;;8.18;2.97;;;;;;;21.33;39.53;102053.25;2085884;28;20045;-65
2021/12/17 03:29:49;;;;;;;4.95;2.38;;;;;;;21.32;39.43;102052.44;2094250;28;20056;-65
2021/12/17 03:30:53;;;;;;;4.38;2.33;;;;;;;21.32;39.61;102046.97;2094668;28;20048;-65
2021/12/17 03:32:00;;;;;;;4.13;2.33;;;;;;;21.33;39.61;102050.50;2086204;28;20064;-66
2021/12/17 03:33:03;;;;;;;6.60;2.42;;;;;;;21.34;39.35;102049.34;2087107;28;20048;-65
2021/12/17 03:35:31;;;;;;;4.85;2.50;;;;;;;21.34;39.47;102054.84;2083817;28;20045;-65
2021/12/17 03:36:35;;;;;;;8.63;2.30;;;;;;;21.34;39.51;102055.69;2078125;28;20060;-66
2021/12/17 03:37:40;;;;;;;6.75;2.50;;;;;;;21.35;39.35;102061.97;2078374;28;20060;-64
2021/12/17 03:38:47;;;;;;;6.95;2.47;;;;;;;21.36;39.35;102058.09;2086823;28;20501;-64
2021/12/17 03:39:52;;;;;;;7.57;2.45;;;;;;;21.35;39.50;102051.78;2085865;28;20049;-64
2021/12/17 03:41:09;;;;;;;6.13;2.30;;;;;;;21.36;39.58;102052.59;2086359;28;20049;-64
2021/12/17 03:42:22;;;;;;;5.55;2.42;;;;;;;21.36;39.48;102055.34;2085787;28;20818;-66
2021/12/17 03:43:30;;;;;;;9.40;2.38;;;;;;;21.35;39.36;102061.97;2086720;28;20037;-65
2021/12/17 03:44:37;;;;;;;5.63;2.47;;;;;;;21.34;39.54;102060.34;2086038;28;20045;-66
2021/12/17 03:46:12;;;;;;;6.40;2.58;;;;;;;21.34;39.49;102060.34;2073341;28;20064;-65
2021/12/17 03:47:18;;;;;;;9.40;2.60;;;;;;;21.38;39.49;102056.59;2094252;28;20049;-64
2021/12/17 03:48:55;;;;;;;5.88;2.58;;;;;;;21.39;39.51;102060.97;2083921;28;20056;-64
2021/12/17 03:49:59;;;;;;;3.38;1.80;;;;;;;21.40;39.46;102059.00;2093612;28;20052;-67
2021/12/17 03:51:04;;;;;;;6.47;2.47;;;;;;;21.41;39.44;102060.63;2086260;28;20048;-67
2021/12/17 03:52:10;;;;;;;5.05;2.10;;;;;;;21.42;39.46;102054.03;2086246;28;20762;-65
2021/12/17 03:53:20;;;;;;;5.63;2.30;;;;;;;21.42;39.44;102054.81;2078923;28;20053;-67
2021/12/17 03:54:34;;;;;;;10.73;2.30;;;;;;;21.44;39.18;102054.50;2078732;28;20101;-66
2021/12/17 03:55:41;;;;;;;6.05;2.33;;;;;;;21.43;39.22;102053.69;2087412;28;20068;-66
2021/12/17 03:56:46;;;;;;;5.18;2.03;;;;;;;21.43;39.30;102050.13;2085833;28;20559;-66
2021/12/17 03:57:50;;;;;;;8.32;2.70;;;;;;;21.44;39.41;102060.00;2078084;28;20049;-66
2021/12/17 03:58:55;;;;;;;5.63;2.30;;;;;;;21.43;39.33;102042.69;2086554;28;20049;-66
2021/12/17 03:59:59;;;;;;;5.07;2.20;;;;;;;21.42;39.21;102041.06;2085673;28;20049;-66
2021/12/17 04:01:09;;;;;;;4.82;2.53;;;;;;;21.43;39.19;102042.69;2089036;28;20041;-66
2021/12/17 04:02:13;;;;;;;4.28;2.00;;;;;;;21.43;39.50;102041.88;2092531;28;20055;-65
2021/12/17 04:03:18;;;;;;;5.10;2.20;;;;;;;21.43;39.31;102039.13;2085966;28;20052;-65
2021/12/17 04:04:27;;;;;;;5.20;2.38;;;;;;;21.44;39.25;102051.75;2093630;28;20048;-65
2021/12/17 04:05:51;;;;;;;4.43;2.50;;;;;;;21.44;39.36;102047.03;2094469;28;20048;-65
2021/12/17 04:07:14;;;;;;;3.72;2.30;;;;;;;21.45;39.21;102053.34;2098063;28;20052;-67
2021/12/17 04:08:42;;;;;;;4.68;2.65;;;;;;;21.43;39.31;102053.69;2077741;28;20049;-64
2021/12/17 04:10:14;;;;;;;4.53;2.40;;;;;;;21.45;39.29;102054.16;2094058;28;20055;-66
2021/12/17 04:11:24;;;;;;;6.60;2.45;;;;;;;21.47;39.33;102048.31;2088035;28;20053;-66
2021/12/17 04:12:47;;;;;;;4.70;2.03;;;;;;;21.48;39.18;102060.91;2094097;28;20052;-64
2021/12/17 04:13:57;;;;;;;5.85;2.50;;;;;;;21.45;39.27;102064.34;2093958;28;20048;-64
2021/12/17 04:15:03;;;;;;;;;;;;;;;21.43;39.35;102063.88;2088003;28;20056;-65
2021/12/17 04:16:12;;;;;;;5.57;2.20;;;;;;;21.43;39.19;102066.63;2086351;28;19920;-65
2021/12/17 04:17:23;;;;;;;6.32;2.78;;;;;;;21.40;39.24;102068.09;2093863;28;20060;-66
2021/12/17 04:18:28;;;;;;;5.88;2.40;;;;;;;21.40;39.42;102072.75;2093772;28;20044;-65
2021/12/17 04:19:31;;;;;;;4.60;2.40;;;;;;;21.38;39.26;102077.81;2086453;28;20784;-66
2021/12/17 04:20:36;;;;;;;4.63;2.40;;;;;;;21.38;39.43;102075.06;2087995;28;20052;-64
2021/12/17 04:21:39;;;;;;;5.72;2.50;;;;;;;21.32;39.44;102063.44;2087409;28;20699;-65
2021/12/17 04:22:45;;;;;;;4.97;2.30;;;;;;;21.37;39.51;102070.69;2087755;28;20524;-65
2021/12/17 04:23:50;;;;;;;4.90;2.15;;;;;;;21.36;39.31;102064.38;2087829;28;20049;-65
2021/12/17 04:24:57;;;;;;;4.68;1.90;;;;;;;21.32;39.33;102057.16;2095638;28;20519;-66
2021/12/17 04:26:05;;;;;;;6.22;2.40;;;;;;;21.36;39.43;102069.06;2094764;28;20500;-66
2021/12/17 04:27:09;;;;;;;5.07;2.05;;;;;;;21.35;39.43;102059.22;2087430;28;20049;-66
2021/12/17 04:28:15;;;;;;;4.85;2.30;;;;;;;21.34;39.54;102074.09;2095706;28;20059;-65
2021/12/17 04:29:22;;;;;;;4.97;2.28;;;;;;;21.34;39.42;102063.09;2088165;28;20412;-64
2021/12/17 04:30:30;;;;;;;6.20;2.17;;;;;;;21.34;39.57;102065.84;2088402;28;20045;-64
2021/12/17 04:31:36;;;;;;;15.45;2.17;;;;;;;21.33;39.52;102065.06;2088067;28;20163;-65
2021/12/17 04:32:39;;;;;;;4.40;2.10;;;;;;;21.34;39.65;102065.84;2087632;28;20144;-64
2021/12/17 04:33:45;;;;;;;5.30;2.03;;;;;;;21.34;39.37;102068.59;2094945;28;20060;-64
2021/12/17 04:34:48;;;;;;;3.75;2.05;;;;;;;21.34;39.51;102071.34;2095414;28;20048;-65
2021/12/17 04:35:53;;;;;;;5.88;2.17;;;;;;;21.33;39.48;102067.00;2095714;28;20143;-65
2021/12/17 04:36:57;;;;;;;3.95;1.95;;;;;;;21.33;39.61;102064.25;2087865;28;20504;-64
2021/12/17 04:38:22;;;;;;;4.13;2.00;;;;;;;21.31;39.61;102063.78;2090433;28;20516;-64
2021/12/17 04:39:24;;;;;;;5.55;2.80;;;;;;;21.29;39.36;102064.91;2088084;28;20041;-64
2021/12/17 04:40:29;;;;;;;5.07;2.20;;;;;;;21.31;39.43;102075.59;2094760;28;20048;-64
2021/12/17 04:41:47;;;;;;;4.15;1.83;;;;;;;21.33;39.58;102072.50;2095178;28;20723;-64
2021/12/17 04:43:00;;;;;;;6.63;2.10;;;;;;;21.30;39.72;102071.22;2089409;28;20045;-64
2021/12/17 04:44:14;;;;;;;5.00;2.15;;;;;;;21.30;39.59;102071.22;2095067;28;20463;-65
2021/12/17 04:45:21;;;;;;;4.50;2.15;;;;;;;21.30;39.72;102076.72;2087591;28;20056;-66
2021/12/17 04:46:31;;;;;;;6.22;2.10;;;;;;;21.29;39.74;102084.16;2087845;28;20056;-65
2021/12/17 04:57:50;;;;;;;3.95;2.10;;;;;;;21.27;39.93;102094.69;2061582;28;20049;-67
2021/12/17 04:58:53;;;;;;;;;;;;;;;21.26;39.90;102087.56;2069531;28;20054;-66
2021/12/17 05:00:00;;;;;;;4.72;2.60;;;;;;;21.25;39.84;102091.47;2087232;28;19953;-67
2021/12/17 05:01:10;;;;;;;8.63;2.50;;;;;;;21.26;39.72;102095.81;2086550;28;20440;-66
2021/12/17 05:02:16;;;;;;;4.40;2.33;;;;;;;21.26;39.67;102090.31;2085937;28;20056;-67
2021/12/17 05:03:32;;;;;;;5.97;3.08;;;;;;;21.25;39.73;102091.47;2088959;28;20049;-66
2021/12/17 05:04:37;;;;;;;4.55;2.08;;;;;;;21.24;39.70;102089.88;2094583;28;20041;-66
2021/12/17 05:05:46;;;;;;;5.88;2.70;;;;;;;21.25;39.83;102085.19;2087826;28;20060;-66
2021/12/17 05:07:00;;;;;;;7.20;3.08;;;;;;;21.24;39.75;102092.63;2095424;28;20056;-66
2021/12/17 05:08:08;;;;;;;4.90;2.90;;;;;;;21.25;39.79;102085.19;2087899;28;20049;-66
2021/12/17 05:09:24;;;;;;;3.22;2.28;;;;;;;21.25;39.76;102085.19;2088410;28;20444;-66
2021/12/17 05:10:45;;;;;;;7.45;2.67;;;;;;;21.25;39.73;102079.69;2088962;28;20782;-66
2021/12/17 05:18:56;;;;;;;6.65;2.42;;;;;;;21.26;39.72;102073.03;2095902;28;20052;-66
2021/12/17 05:19:59;;;;;;;6.35;2.63;;;;;;;21.24;39.73;102076.13;2095246;28;20048;-65
2021/12/17 05:21:08;;;;;;;9.02;2.80;;;;;;;21.23;39.82;102076.44;2086605;28;20060;-63
2021/12/17 05:22:19;;;;;;;7.22;2.80;;;;;;;21.26;39.83;102078.53;2095021;28;20044;-65
2021/12/17 05:23:30;;;;;;;3.80;2.30;;;;;;;21.25;39.75;102077.72;2087688;28;20053;-65
2021/12/17 05:24:33;;;;;;;4.53;2.25;;;;;;;21.25;39.83;102077.72;2087914;28;20049;-65
2021/12/17 05:25:38;;;;;;;3.92;2.10;;;;;;;21.25;39.72;102079.69;2094755;28;20053;-66
2021/12/17 05:26:42;;;;;;;6.00;2.80;;;;;;;21.26;39.87;102075.78;2087157;28;20068;-66
2021/12/17 05:27:49;;;;;;;5.15;2.78;;;;;;;21.25;40.01;102068.69;2087326;28;20053;-66
2021/12/17 05:28:57;;;;;;;4.82;2.78;;;;;;;21.27;40.06;102072.72;2087374;28;20504;-66
2021/12/17 05:30:11;;;;;;;5.00;2.47;;;;;;;21.27;39.76;102069.97;2094933;28;20059;-66
2021/12/17 05:31:21;;;;;;;4.93;2.55;;;;;;;21.26;39.69;102068.34;2087355;28;20053;-67
2021/12/17 05:32:26;;;;;;;5.05;2.40;;;;;;;21.26;39.86;102076.59;2087767;28;20056;-65
2021/12/17 05:33:36;;;;;;;6.80;2.88;;;;;;;21.27;39.90;102071.88;2087564;28;20404;-65
2021/12/17 05:34:41;;;;;;;5.70;3.88;;;;;;;21.27;39.89;102075.47;2087392;28;20045;-65
2021/12/17 05:35:48;;;;;;;4.68;2.90;;;;;;;21.26;40.06;102071.09;2086977;28;20079;-66
2021/12/17 05:36:52;;;;;;;6.53;3.75;;;;;;;21.28;39.97;102071.56;2094875;28;20051;-66
2021/12/17 05:38:02;;;;;;;6.85;3.28;;;;;;;21.27;39.83;102067.22;2087068;28;20719;-66
2021/12/17 05:39:08;;;;;;;6.35;3.50;;;;;;;21.27;39.83;102063.63;2087471;28;20049;-66
2021/12/17 05:40:14;;;;;;;5.43;2.67;;;;;;;21.26;39.72;102060.09;2086870;28;20053;-67
2021/12/17 05:41:19;;;;;;;8.18;3.10;;;;;;;21.27;39.84;102067.22;2087410;28;20500;-66
2021/12/17 05:42:54;;;;;;;6.75;2.60;;;;;;;21.26;40.02;102067.53;2075278;28;20138;-67
2021/12/17 05:44:02;;;;;;;4.82;2.67;;;;;;;21.25;39.87;102061.25;2094565;28;20515;-66
2021/12/17 05:45:20;;;;;;;3.58;2.30;;;;;;;21.25;40.03;102057.69;2086609;28;20049;-65
2021/12/17 05:46:37;;;;;;;4.82;2.60;;;;;;;21.26;39.91;102070.28;2094762;28;20520;-66
2021/12/17 05:47:40;;;;;;;3.92;2.30;;;;;;;21.26;39.83;102067.53;2094948;28;20524;-66
2021/12/17 05:48:44;;;;;;;4.28;2.55;;;;;;;21.25;40.03;102074.97;2094171;28;20048;-65
2021/12/17 05:49:52;;;;;;;18.17;2.65;;;;;;;21.24;40.01;102076.13;2086974;28;20053;-65
2021/12/17 05:50:56;;;;;;;6.25;2.38;;;;;;;21.25;40.11;102074.19;2086732;28;20064;-66
2021/12/17 05:52:02;;;;;;;4.00;2.50;;;;;;;21.24;40.07;102073.38;2086521;28;20057;-66
2021/12/17 05:53:08;;;;;;;4.45;2.47;;;;;;;21.27;39.99;102071.88;2087587;28;20053;-67
2021/12/17 05:54:13;;;;;;;5.05;2.58;;;;;;;21.28;40.09;102073.50;2086792;28;20064;-66
2021/12/17 05:55:18;;;;;;;7.80;2.30;;;;;;;21.30;40.22;102068.47;2086504;28;20052;-66
2021/12/17 05:56:24;;;;;;;7.18;2.25;;;;;;;21.33;40.02;102072.50;2086665;28;20049;-65
2021/12/17 05:57:32;;;;;;;7.50;2.47;;;;;;;21.34;40.10;102065.84;2086742;28;20049;-65
2021/12/17 05:58:36;;;;;;;4.50;2.30;;;;;;;21.36;40.08;102071.81;2094001;28;20067;-65
2021/12/17 05:59:44;;;;;;;4.25;2.40;;;;;;;21.36;40.11;102069.88;2094503;28;20049;-65
2021/12/17 06:00:47;;;;;;;6.50;2.10;;;;;;;21.35;40.01;102068.28;2087459;28;20052;-66
2021/12/17 06:02:19;;;;;;;3.80;2.40;;;;;;;21.35;39.97;102078.47;2092226;28;20060;-65
2021/12/17 06:03:24;;;;;;;5.40;2.40;;;;;;;21.37;39.91;102084.41;2086662;28;20048;-64
2021/12/17 06:04:42;;;;;;;3.95;2.40;;;;;;;21.37;39.92;102076.16;2086269;28;20838;-65
2021/12/17 06:05:45;;;;;;;4.65;2.20;;;;;;;21.36;39.72;102077.31;2077927;28;20065;-65
2021/12/17 06:06:50;;;;;;;4.10;2.33;;;;;;;21.34;39.94;102066.69;2077305;28;20060;-66
2021/12/17 06:07:55;;;;;;;5.07;2.30;;;;;;;21.36;39.74;102078.13;2085347;28;20045;-66
2021/12/17 06:09:05;;;;;;;5.10;2.20;;;;;;;21.38;39.76;102083.31;2077346;28;20716;-66
2021/12/17 06:10:11;;;;;;;4.20;2.08;;;;;;;21.38;39.83;102078.59;2078262;28;20057;-66
2021/12/17 06:11:21;;;;;;;3.97;2.38;;;;;;;21.39;39.71;102085.69;2078475;28;20405;-66
2021/12/17 06:12:26;;;;;;;10.25;2.70;;;;;;;21.39;40.07;102084.91;2077256;28;20065;-68
2021/12/17 06:13:32;;;;;;;4.82;2.30;;;;;;;21.41;40.08;102085.38;2078190;28;20053;-67
2021/12/17 06:14:38;;;;;;;9.43;2.22;;;;;;;21.43;40.00;102094.94;2077055;28;20049;-66
2021/12/17 06:15:47;;;;;;;5.15;2.60;;;;;;;21.42;40.29;102081.50;2077669;28;20045;-67
2021/12/17 06:16:51;;;;;;;;;;;;;;;21.46;40.28;102090.69;2086771;28;20049;-68
2021/12/17 06:18:07;;;;;;;5.05;2.30;;;;;;;21.47;40.30;102092.31;2093781;28;20522;-72
2021/12/17 06:19:10;;;;;;;5.60;2.20;;;;;;;21.50;40.58;102091.66;2092707;28;20064;-68
2021/12/17 06:20:19;;;;;;;7.13;2.17;;;;;;;21.52;40.36;102097.59;2077433;28;20394;-66
2021/12/17 06:21:26;;;;;;;9.73;2.45;;;;;;;21.56;40.30;102103.22;2078082;28;20425;-68
2021/12/17 06:26:13;;;;;;;16.08;3.42;;;;;;;21.72;40.75;102112.50;2118307;27;20429;-70
2021/12/17 06:27:24;;;;;;;12.18;2.90;;;;;;;21.74;40.48;102110.97;2105800;28;20056;-69
2021/12/17 06:28:30;;;;;;;20.75;2.85;;;;;;;21.76;40.77;102112.63;2092720;28;20049;-70
2021/12/17 06:29:36;;;;;;;13.15;3.13;;;;;;;21.74;40.79;102113.72;2092663;28;20053;-72
2021/12/17 06:30:47;;;;;;;7.60;2.65;;;;;;;21.74;40.84;102113.72;2092726;28;20049;-73
2021/12/17 06:31:58;;;;;;;16.60;3.75;;;;;;;21.73;40.77;102117.63;2085382;28;20359;-71
2021/12/17 06:33:03;;;;;;;11.73;3.25;;;;;;;21.73;40.69;102117.63;2085344;28;20057;-71
2021/12/17 06:34:09;;;;;;;18.55;3.50;;;;;;;21.74;40.92;102121.19;2092458;28;20767;-69
2021/12/17 06:35:14;;;;;;;7.80;2.67;;;;;;;21.76;40.93;102129.13;2091939;28;20045;-71
2021/12/17 06:36:17;;;;;;;13.65;3.05;;;;;;;21.76;40.95;102126.38;2091704;28;20060;-72
2021/12/17 06:37:23;;;;;;;11.18;2.85;;;;;;;21.77;40.96;102131.50;2092822;28;20532;-71
2021/12/17 06:38:31;;;;;;;7.68;3.05;;;;;;;21.80;40.76;102130.03;2093243;28;20061;-71
2021/12/17 06:39:38;;;;;;;6.68;3.10;;;;;;;21.79;40.59;102136.69;2093284;28;20084;-78
2021/12/17 06:40:43;;;;;;;5.65;3.13;;;;;;;21.78;40.58;102141.41;2092495;28;20496;-77
2021/12/17 06:41:49;;;;;;;14.88;3.33;;;;;;;21.77;40.72;102134.25;2092086;28;20050;-77
2021/12/17 06:42:54;;;;;;;7.55;2.58;;;;;;;21.76;40.68;102140.91;2092069;28;20051;-74
2021/12/17 06:44:00;;;;;;;7.78;2.80;;;;;;;21.77;40.44;102138.97;2091772;28;20053;-76
2021/12/17 06:45:18;;;;;;;8.85;2.72;;;;;;;21.77;40.44;102138.97;2093038;28;20539;-75
2021/12/17 06:46:29;;;;;;;7.80;2.70;;;;;;;21.74;40.51;102141.25;2093954;28;20523;-77
2021/12/17 06:47:38;;;;;;;5.53;2.60;;;;;;;21.65;40.34;102142.47;2093528;28;20051;-76
2021/12/17 06:48:46;;;;;;;14.60;3.47;;;;;;;21.63;40.48;102140.06;2093433;28;20062;-78
2021/12/17 06:49:57;;;;;;;8.52;2.55;;;;;;;21.64;40.33;102136.16;2092688;28;20048;-75
2021/12/17 06:54:42;;;;;;;7.57;3.03;;;;;;;21.64;40.84;102136.16;2100693;28;20123;-79
2021/12/17 07:07:05;;;;;;;5.78;2.70;;;;;;;21.72;40.54;102121.53;2074354;28;20049;-79
2021/12/17 07:10:28;;;;;;;7.22;3.10;;;;;;;21.73;40.38;102119.59;2087633;28;20515;-78
2021/12/17 07:17:07;;;;;;;;;;;;;;;21.73;40.62;102123.13;2086037;28;20543;-79
2021/12/17 07:17:38;;;;;;;4.72;2.50;;;;;;;21.77;40.72;102127.97;2086727;28;20631;-75
2021/12/17 07:23:05;;;;;;;17.75;3.63;;;;;;;21.82;41.15;102147.03;2084992;28;20045;-74
2021/12/17 07:28:42;;;;;;;19.80;4.53;;;;;;;21.79;41.10;102164.19;2086261;28;20047;-71
2021/12/17 07:32:52;;;;;;;21.85;5.30;;;;;;;21.77;41.02;102164.53;2100917;28;20051;-72